Time;durP1;ratioP1;P1;durP2;ratioP2;P2;SDS_P1;SDS_P2;PMS_P1;PMS_P2;Temp;Humidity;BMP_temperature;BMP_pressure;BME280_temperature;BME280_humidity;BME280_pressure;Samples;Min_cycle;Max_cycle;Signal;HPM_P1;HPM_P2
2021/04/12 00:02:39;;;;;;;1.00;1.00;;;;;;;19.49;43.03;100715.35;;;;-56
2021/04/12 00:05:39;;;;;;;1.01;1.01;;;;;;;19.48;43.10;100726.14;;;;-54
2021/04/12 00:08:39;;;;;;;1.01;1.01;;;;;;;19.47;43.09;100730.45;;;;-53
2021/04/12 00:11:39;;;;;;;0.97;0.97;;;;;;;19.46;43.05;100731.19;;;;-53
2021/04/12 00:14:40;;;;;;;0.99;0.99;;;;;;;19.45;43.14;100727.09;;;;-53
2021/04/12 00:17:39;;;;;;;1.01;1.01;;;;;;;19.44;43.13;100732.52;;;;-54
2021/04/12 00:20:39;;;;;;;1.01;1.01;;;;;;;19.43;43.09;100741.95;;;;-53
2021/04/12 00:23:39;;;;;;;1.21;1.08;;;;;;;19.41;43.06;100746.96;;;;-54
2021/04/12 00:26:39;;;;;;;0.96;0.96;;;;;;;19.40;43.14;100749.97;;;;-54
2021/04/12 00:29:39;;;;;;;0.99;0.99;;;;;;;19.39;43.18;100747.09;;;;-56
2021/04/12 00:32:39;;;;;;;1.00;1.00;;;;;;;19.38;43.17;100748.89;;;;-56
2021/04/12 00:35:39;;;;;;;1.05;1.05;;;;;;;19.37;43.14;100748.54;;;;-52
2021/04/12 00:38:39;;;;;;;0.98;0.98;;;;;;;19.35;43.15;100752.42;;;;-53
2021/04/12 00:41:39;;;;;;;1.03;1.03;;;;;;;19.34;43.10;100761.69;;;;-54
2021/04/12 00:44:39;;;;;;;1.04;1.04;;;;;;;19.33;43.17;100771.90;;;;-53
2021/04/12 00:48:39;;;;;;;0.91;0.91;;;;;;;19.31;43.18;100775.94;;;;-53
2021/04/12 00:51:39;;;;;;;0.90;0.90;;;;;;;19.31;43.20;100783.25;;;;-53
2021/04/12 00:54:39;;;;;;;1.12;1.09;;;;;;;19.29;43.20;100787.05;;;;-54
2021/04/12 00:57:39;;;;;;;0.90;0.90;;;;;;;19.28;43.17;100786.16;;;;-54
2021/04/12 01:00:39;;;;;;;0.90;0.90;;;;;;;19.28;43.22;100791.92;;;;-53
2021/04/12 01:03:39;;;;;;;0.84;0.84;;;;;;;19.26;43.18;100793.52;;;;-53
2021/04/12 01:06:39;;;;;;;1.10;1.00;;;;;;;19.26;43.14;100798.61;;;;-54
2021/04/12 01:09:39;;;;;;;1.01;1.00;;;;;;;19.25;43.18;100808.52;;;;-54
2021/04/12 01:12:39;;;;;;;0.89;0.89;;;;;;;19.24;43.21;100807.63;;;;-56
2021/04/12 01:17:39;;;;;;;1.00;1.00;;;;;;;19.22;43.18;100809.87;;;;-55
2021/04/12 01:21:39;;;;;;;1.05;1.00;;;;;;;19.20;43.21;100813.34;;;;-55
2021/04/12 01:25:39;;;;;;;1.03;1.03;;;;;;;19.19;43.20;100814.78;;;;-52
2021/04/12 01:29:39;;;;;;;0.97;0.97;;;;;;;19.17;43.22;100815.81;;;;-55
2021/04/12 01:33:39;;;;;;;0.94;0.94;;;;;;;19.16;43.24;100817.11;;;;-55
2021/04/12 01:36:39;;;;;;;0.91;0.91;;;;;;;19.16;43.24;100826.38;;;;-55
2021/04/12 01:39:39;;;;;;;0.92;0.92;;;;;;;19.14;43.25;100829.75;;;;-56
2021/04/12 01:42:39;;;;;;;1.03;1.03;;;;;;;19.14;43.25;100836.98;;;;-52
2021/04/12 01:45:39;;;;;;;0.99;0.98;;;;;;;19.13;43.25;100834.84;;;;-52
2021/04/12 01:48:39;;;;;;;1.00;1.00;;;;;;;19.12;43.25;100837.69;;;;-52
2021/04/12 01:51:39;;;;;;;0.97;0.97;;;;;;;19.11;43.25;100838.80;;;;-52
2021/04/12 01:55:39;;;;;;;1.00;1.00;;;;;;;19.10;43.25;100842.62;;;;-52
2021/04/12 01:58:39;;;;;;;1.01;1.01;;;;;;;19.09;43.26;100849.93;;;;-52
2021/04/12 02:01:39;;;;;;;0.96;0.96;;;;;;;19.08;43.25;100848.77;;;;-52
2021/04/12 02:04:39;;;;;;;0.94;0.94;;;;;;;19.08;43.25;100856.72;;;;-52
2021/04/12 02:07:39;;;;;;;0.99;0.99;;;;;;;19.07;43.25;100856.20;;;;-52
2021/04/12 02:10:39;;;;;;;1.09;1.09;;;;;;;19.06;43.24;100857.50;;;;-52
2021/04/12 02:13:39;;;;;;;1.21;1.11;;;;;;;19.05;43.23;100857.55;;;;-52
2021/04/12 02:18:39;;;;;;;1.04;1.03;;;;;;;19.03;43.22;100868.60;;;;-53
2021/04/12 02:21:39;;;;;;;1.03;1.03;;;;;;;19.02;43.25;100876.20;;;;-53
2021/04/12 02:24:39;;;;;;;0.95;0.95;;;;;;;19.02;43.24;100876.77;;;;-54
2021/04/12 02:27:39;;;;;;;1.00;1.00;;;;;;;19.01;43.24;100877.51;;;;-53
2021/04/12 02:30:39;;;;;;;1.31;1.10;;;;;;;19.00;43.26;100881.62;;;;-52
2021/04/12 02:33:39;;;;;;;1.10;1.10;;;;;;;18.99;43.24;100883.73;;;;-52
2021/04/12 02:36:39;;;;;;;1.06;1.06;;;;;;;18.98;43.28;100896.38;;;;-52
2021/04/12 02:39:39;;;;;;;1.11;1.09;;;;;;;18.97;43.27;100911.48;;;;-52
2021/04/12 02:42:39;;;;;;;1.18;1.08;;;;;;;18.97;43.28;100900.75;;;;-52
2021/04/12 02:45:39;;;;;;;1.07;1.01;;;;;;;18.96;43.26;100898.37;;;;-52
2021/04/12 02:48:39;;;;;;;1.07;1.07;;;;;;;18.96;43.24;100904.22;;;;-52
2021/04/12 02:51:39;;;;;;;1.17;1.13;;;;;;;18.95;43.22;100912.98;;;;-52
2021/04/12 02:54:39;;;;;;;1.05;1.05;;;;;;;18.94;43.28;100915.06;;;;-52
2021/04/12 02:57:39;;;;;;;1.06;1.06;;;;;;;18.93;43.25;100908.41;;;;-52
2021/04/12 03:00:39;;;;;;;1.19;1.09;;;;;;;18.93;43.22;100916.37;;;;-52
2021/04/12 03:03:39;;;;;;;1.53;1.09;;;;;;;18.92;43.24;100919.34;;;;-52
2021/04/12 03:06:39;;;;;;;1.09;1.09;;;;;;;18.91;43.27;100925.43;;;;-52
2021/04/12 03:09:39;;;;;;;1.16;1.10;;;;;;;18.91;43.24;100925.83;;;;-52
2021/04/12 03:12:39;;;;;;;1.06;1.00;;;;;;;18.90;43.28;100927.59;;;;-56
2021/04/12 03:15:39;;;;;;;1.18;1.10;;;;;;;18.89;43.28;100941.06;;;;-52
2021/04/12 03:18:39;;;;;;;1.11;1.10;;;;;;;18.88;43.26;100947.05;;;;-56
2021/04/12 03:22:39;;;;;;;1.22;1.12;;;;;;;18.87;43.27;100955.41;;;;-56
2021/04/12 03:25:39;;;;;;;1.10;1.10;;;;;;;18.87;43.28;100956.79;;;;-56
2021/04/12 03:28:39;;;;;;;1.00;1.00;;;;;;;18.86;43.29;100969.34;;;;-55
2021/04/12 03:31:39;;;;;;;1.23;1.17;;;;;;;18.85;43.25;100974.86;;;;-55
2021/04/12 03:34:39;;;;;;;1.10;1.00;;;;;;;18.84;43.27;100973.94;;;;-55
2021/04/12 03:37:39;;;;;;;1.00;1.00;;;;;;;18.83;43.24;100983.44;;;;-55
2021/04/12 03:40:39;;;;;;;1.25;1.15;;;;;;;18.83;43.28;100983.27;;;;-54
2021/04/12 03:43:39;;;;;;;0.97;0.97;;;;;;;18.82;43.25;100979.91;;;;-55
2021/04/12 03:46:39;;;;;;;1.15;1.11;;;;;;;18.81;43.28;100981.86;;;;-52
2021/04/12 03:49:39;;;;;;;1.23;1.06;;;;;;;18.81;43.25;100984.54;;;;-52
2021/04/12 03:52:39;;;;;;;1.08;1.04;;;;;;;18.80;43.22;100984.83;;;;-52
2021/04/12 03:56:39;;;;;;;1.25;1.15;;;;;;;18.80;43.26;100990.02;;;;-56
2021/04/12 03:59:39;;;;;;;1.02;1.02;;;;;;;18.78;43.26;100994.16;;;;-56
2021/04/12 04:02:39;;;;;;;1.12;1.11;;;;;;;18.77;43.30;100999.94;;;;-56
2021/04/12 04:05:39;;;;;;;1.10;1.07;;;;;;;18.77;43.28;100995.39;;;;-56
2021/04/12 04:08:39;;;;;;;0.88;0.88;;;;;;;18.77;43.27;100993.04;;;;-52
2021/04/12 04:11:39;;;;;;;1.03;1.01;;;;;;;18.76;43.24;100994.80;;;;-52
2021/04/12 04:14:39;;;;;;;1.30;1.00;;;;;;;18.75;43.25;100997.31;;;;-52
2021/04/12 04:17:39;;;;;;;0.95;0.95;;;;;;;18.74;43.26;101002.17;;;;-52
2021/04/12 04:20:39;;;;;;;1.34;0.97;;;;;;;18.74;43.26;101010.13;;;;-52
2021/04/12 04:23:39;;;;;;;0.91;0.91;;;;;;;18.74;43.25;101016.36;;;;-52
2021/04/12 04:26:39;;;;;;;0.99;0.99;;;;;;;18.73;43.27;101019.27;;;;-52
2021/04/12 04:29:39;;;;;;;1.03;1.03;;;;;;;18.72;43.26;101033.07;;;;-55
2021/04/12 04:32:39;;;;;;;1.31;1.00;;;;;;;18.71;43.29;101042.30;;;;-55
2021/04/12 04:35:39;;;;;;;1.17;1.08;;;;;;;18.71;43.24;101044.97;;;;-52
2021/04/12 04:38:39;;;;;;;1.08;1.03;;;;;;;18.71;43.27;101050.90;;;;-54
2021/04/12 04:41:39;;;;;;;1.04;1.04;;;;;;;18.70;43.28;101049.92;;;;-55
2021/04/12 04:44:39;;;;;;;1.01;1.01;;;;;;;18.69;43.29;101057.36;;;;-56
2021/04/12 04:47:39;;;;;;;1.17;1.09;;;;;;;18.69;43.28;101063.05;;;;-52
2021/04/12 04:50:39;;;;;;;1.20;1.10;;;;;;;18.68;43.29;101067.98;;;;-52
2021/04/12 04:54:39;;;;;;;1.00;1.00;;;;;;;18.66;43.28;101069.00;;;;-52
2021/04/12 04:57:39;;;;;;;1.37;1.17;;;;;;;18.67;43.29;101072.50;;;;-51
2021/04/12 05:00:39;;;;;;;1.21;1.11;;;;;;;18.66;43.31;101075.91;;;;-52
2021/04/12 05:04:39;;;;;;;1.32;1.10;;;;;;;18.65;43.29;101083.98;;;;-52
2021/04/12 05:08:39;;;;;;;1.11;1.10;;;;;;;18.64;43.28;101093.16;;;;-55
2021/04/12 05:12:39;;;;;;;1.27;1.16;;;;;;;18.63;43.29;101100.50;;;;-54
2021/04/12 05:15:39;;;;;;;1.16;1.10;;;;;;;18.63;43.25;101108.71;;;;-54
2021/04/12 05:18:39;;;;;;;1.07;1.05;;;;;;;18.63;43.25;101106.35;;;;-53
2021/04/12 05:22:39;;;;;;;0.96;0.96;;;;;;;18.63;43.28;101110.81;;;;-54
2021/04/12 05:25:39;;;;;;;1.19;1.09;;;;;;;18.64;43.25;101110.53;;;;-56
2021/04/12 05:28:39;;;;;;;1.13;1.10;;;;;;;18.66;43.23;101118.69;;;;-55
2021/04/12 05:31:39;;;;;;;1.14;1.04;;;;;;;18.68;43.23;101119.70;;;;-54
2021/04/12 05:34:39;;;;;;;1.05;1.04;;;;;;;18.69;43.25;101128.48;;;;-54
2021/04/12 05:37:39;;;;;;;1.00;1.00;;;;;;;18.71;43.24;101131.60;;;;-54
2021/04/12 05:40:39;;;;;;;1.01;1.01;;;;;;;18.74;43.26;101138.09;;;;-54
2021/04/12 05:43:39;;;;;;;1.01;1.00;;;;;;;18.77;43.26;101150.08;;;;-53
2021/04/12 05:47:39;;;;;;;0.90;0.90;;;;;;;18.82;43.28;101153.13;;;;-53
2021/04/12 05:50:39;;;;;;;1.00;1.00;;;;;;;18.85;43.21;101151.17;;;;-53
2021/04/12 05:53:39;;;;;;;1.07;1.04;;;;;;;18.88;43.26;101158.84;;;;-53
2021/04/12 05:57:39;;;;;;;1.17;1.07;;;;;;;18.91;43.26;101157.79;;;;-54
2021/04/12 06:00:39;;;;;;;1.09;1.09;;;;;;;18.93;43.28;101159.30;;;;-53
2021/04/12 06:03:39;;;;;;;1.10;1.10;;;;;;;18.95;43.28;101168.84;;;;-53
2021/04/12 06:06:39;;;;;;;0.91;0.91;;;;;;;18.97;43.27;101172.77;;;;-52
2021/04/12 06:11:39;;;;;;;1.00;1.00;;;;;;;18.99;43.25;101186.47;;;;-52
2021/04/12 06:15:39;;;;;;;1.01;1.01;;;;;;;19.01;43.27;101187.48;;;;-52
2021/04/12 06:18:39;;;;;;;1.04;1.04;;;;;;;19.03;43.23;101194.88;;;;-52
2021/04/12 06:21:39;;;;;;;1.00;1.00;;;;;;;19.03;43.23;101201.25;;;;-52
2021/04/12 06:25:39;;;;;;;1.00;1.00;;;;;;;19.04;43.21;101204.98;;;;-52
2021/04/12 06:28:39;;;;;;;1.15;1.11;;;;;;;19.04;43.21;101208.48;;;;-52
2021/04/12 06:31:39;;;;;;;1.03;1.03;;;;;;;19.05;43.21;101213.20;;;;-53
2021/04/12 06:36:39;;;;;;;1.07;1.07;;;;;;;19.06;43.17;101220.70;;;;-53
2021/04/12 06:39:39;;;;;;;0.96;0.96;;;;;;;19.05;43.16;101223.02;;;;-53
2021/04/12 06:42:39;;;;;;;1.19;1.09;;;;;;;19.05;43.13;101230.50;;;;-53
2021/04/12 06:47:39;;;;;;;0.94;0.94;;;;;;;19.04;43.15;101231.39;;;;-52
2021/04/12 06:52:39;;;;;;;1.09;1.06;;;;;;;19.05;43.13;101238.66;;;;-52
2021/04/12 06:57:39;;;;;;;1.15;1.07;;;;;;;19.05;43.10;101246.91;;;;-52
2021/04/12 07:01:39;;;;;;;1.93;1.15;;;;;;;19.04;43.06;101251.94;;;;-55
2021/04/12 07:06:39;;;;;;;1.15;1.10;;;;;;;19.04;43.10;101263.80;;;;-56
2021/04/12 07:09:39;;;;;;;1.20;1.10;;;;;;;19.04;43.07;101269.41;;;;-55
2021/04/12 07:12:39;;;;;;;1.11;1.09;;;;;;;19.03;43.05;101271.52;;;;-56
2021/04/12 07:17:39;;;;;;;1.02;1.02;;;;;;;19.04;43.05;101280.53;;;;-53
2021/04/12 07:22:39;;;;;;;1.25;1.17;;;;;;;19.03;43.02;101286.52;;;;-55
2021/04/12 07:28:39;;;;;;;0.91;0.91;;;;;;;19.02;43.02;101304.87;;;;-55
2021/04/12 07:34:39;;;;;;;1.13;1.04;;;;;;;19.01;42.98;101301.73;;;;-53
2021/04/12 07:37:39;;;;;;;1.12;1.11;;;;;;;19.00;42.98;101304.09;;;;-53
2021/04/12 07:42:39;;;;;;;1.00;1.00;;;;;;;18.98;43.02;101310.55;;;;-52
2021/04/12 07:46:39;;;;;;;2.24;1.20;;;;;;;18.98;43.02;101321.84;;;;-54
2021/04/12 07:51:39;;;;;;;1.39;1.01;;;;;;;19.02;43.57;101327.20;;;;-52
2021/04/12 07:55:39;;;;;;;1.47;1.27;;;;;;;19.06;43.45;101332.58;;;;-53
2021/04/12 08:00:39;;;;;;;3.22;1.20;;;;;;;19.14;43.78;101340.31;;;;-54
2021/04/12 08:03:39;;;;;;;9.76;1.31;;;;;;;19.17;43.47;101340.16;;;;-53
2021/04/12 08:09:39;;;;;;;2.50;1.20;;;;;;;19.26;43.37;101346.48;;;;-59
2021/04/12 08:12:39;;;;;;;4.55;1.24;;;;;;;19.33;43.66;101352.25;;;;-53
2021/04/12 08:15:39;;;;;;;4.07;1.10;;;;;;;19.39;43.69;101349.13;;;;-54
2021/04/12 08:19:39;;;;;;;2.37;1.13;;;;;;;19.46;43.73;101353.25;;;;-52
2021/04/12 08:22:39;;;;;;;3.71;1.15;;;;;;;19.52;43.77;101359.47;;;;-52
2021/04/12 08:26:39;;;;;;;1.29;1.15;;;;;;;19.61;43.84;101358.83;;;;-53
2021/04/12 08:31:39;;;;;;;2.71;1.14;;;;;;;19.69;43.85;101363.63;;;;-53
2021/04/12 09:10:13;;;;;;;1.13;1.04;;;;;;;20.07;42.74;101387.19;;;;-52
2021/04/12 09:14:13;;;;;;;1.24;1.11;;;;;;;20.07;42.70;101391.19;;;;-52
2021/04/12 09:19:13;;;;;;;1.75;1.20;;;;;;;20.11;42.74;101391.75;;;;-59
2021/04/12 09:24:13;;;;;;;1.73;1.13;;;;;;;20.16;42.75;101400.78;;;;-52
2021/04/12 09:27:13;;;;;;;2.03;1.13;;;;;;;20.15;42.64;101407.09;;;;-52
2021/04/12 09:30:13;;;;;;;1.23;1.13;;;;;;;20.16;42.65;101401.09;;;;-59
2021/04/12 09:33:13;;;;;;;1.81;1.10;;;;;;;20.16;42.60;101406.31;;;;-59
2021/04/12 09:36:13;;;;;;;1.45;1.10;;;;;;;20.15;42.59;101405.95;;;;-59
2021/04/12 09:40:13;;;;;;;1.45;1.10;;;;;;;20.16;42.57;101402.32;;;;-52
2021/04/12 09:43:13;;;;;;;1.55;1.20;;;;;;;20.18;42.55;101407.41;;;;-52
2021/04/12 09:46:13;;;;;;;1.19;1.09;;;;;;;20.19;42.47;101406.80;;;;-52
2021/04/12 09:49:13;;;;;;;2.18;1.10;;;;;;;20.20;42.48;101406.39;;;;-52
2021/04/12 09:54:13;;;;;;;2.73;1.40;;;;;;;20.18;41.44;101407.24;;;;-59
2021/04/12 09:59:14;;;;;;;2.48;1.57;;;;;;;20.25;42.15;101408.83;;;;-58
2021/04/12 10:02:13;;;;;;;1.64;1.35;;;;;;;20.29;42.29;101412.32;;;;-54
2021/04/12 10:05:13;;;;;;;4.54;1.27;;;;;;;20.32;42.36;101407.75;;;;-54
2021/04/12 10:09:13;;;;;;;2.25;1.27;;;;;;;20.37;42.37;101406.61;;;;-59
2021/04/12 10:12:13;;;;;;;3.07;1.41;;;;;;;20.36;42.21;101409.05;;;;-60
2021/04/12 10:15:13;;;;;;;2.62;1.29;;;;;;;20.37;42.20;101418.91;;;;-59
2021/04/12 10:18:13;;;;;;;3.83;1.36;;;;;;;20.36;42.22;101413.52;;;;-52
2021/04/12 10:21:13;;;;;;;3.56;1.30;;;;;;;20.37;42.21;101411.25;;;;-57
2021/04/12 10:24:13;;;;;;;2.00;1.26;;;;;;;20.37;42.14;101412.80;;;;-52
2021/04/12 10:27:13;;;;;;;3.27;1.24;;;;;;;20.39;42.14;101414.13;;;;-51
2021/04/12 10:30:13;;;;;;;1.48;1.20;;;;;;;20.39;42.13;101415.27;;;;-52
2021/04/12 10:33:13;;;;;;;1.95;1.27;;;;;;;20.44;42.19;101417.88;;;;-52
2021/04/12 10:36:13;;;;;;;2.30;1.31;;;;;;;20.46;42.39;101418.92;;;;-58
2021/04/12 10:39:13;;;;;;;2.16;1.20;;;;;;;20.50;42.31;101418.63;;;;-55
2021/04/12 10:42:13;;;;;;;1.35;1.20;;;;;;;20.50;42.30;101417.66;;;;-51
2021/04/12 10:45:13;;;;;;;3.35;1.28;;;;;;;20.54;42.35;101416.59;;;;-59
2021/04/12 10:48:13;;;;;;;2.31;1.27;;;;;;;20.56;42.21;101414.02;;;;-49
2021/04/12 10:51:13;;;;;;;3.69;1.21;;;;;;;20.58;42.22;101416.66;;;;-56
2021/04/12 10:54:14;;;;;;;3.32;1.30;;;;;;;20.58;41.86;101417.91;;;;-53
2021/04/12 10:57:13;;;;;;;2.48;1.29;;;;;;;20.59;42.17;101416.72;;;;-53
2021/04/12 11:00:13;;;;;;;1.71;1.23;;;;;;;20.61;42.22;101415.70;;;;-56
2021/04/12 11:03:13;;;;;;;4.27;1.41;;;;;;;20.67;42.16;101419.03;;;;-50
2021/04/12 11:06:13;;;;;;;4.12;1.30;;;;;;;20.67;42.17;101418.98;;;;-52
2021/04/12 11:09:13;;;;;;;2.24;1.26;;;;;;;20.71;42.21;101417.39;;;;-52
2021/04/12 11:12:13;;;;;;;3.53;1.19;;;;;;;20.75;42.30;101415.98;;;;-51
2021/04/12 11:15:13;;;;;;;2.77;1.31;;;;;;;20.76;42.36;101415.45;;;;-50
2021/04/12 11:18:13;;;;;;;2.06;1.20;;;;;;;20.77;42.37;101418.58;;;;-50
2021/04/12 11:21:13;;;;;;;1.59;1.32;;;;;;;20.81;42.57;101415.19;;;;-49
2021/04/12 11:24:13;;;;;;;1.35;1.20;;;;;;;20.83;42.37;101413.67;;;;-47
2021/04/12 11:27:13;;;;;;;1.37;1.25;;;;;;;20.87;42.38;101414.97;;;;-59
2021/04/12 11:31:13;;;;;;;1.81;1.20;;;;;;;20.87;42.07;101413.25;;;;-61
2021/04/12 11:34:13;;;;;;;2.67;1.10;;;;;;;20.84;42.01;101418.92;;;;-59
2021/04/12 11:37:13;;;;;;;1.31;1.10;;;;;;;20.82;42.03;101416.94;;;;-64
2021/04/12 11:40:13;;;;;;;1.35;1.17;;;;;;;20.83;42.07;101416.69;;;;-64
2021/04/12 11:43:13;;;;;;;2.79;1.41;;;;;;;20.84;42.23;101415.66;;;;-61
2021/04/12 11:46:13;;;;;;;1.35;1.25;;;;;;;20.84;42.26;101413.14;;;;-60
2021/04/12 11:49:13;;;;;;;2.44;1.28;;;;;;;20.86;41.99;101418.95;;;;-58
2021/04/12 11:52:13;;;;;;;3.48;1.10;;;;;;;20.85;42.00;101418.84;;;;-56
2021/04/12 11:55:13;;;;;;;3.69;1.29;;;;;;;20.84;41.93;101420.47;;;;-55
2021/04/12 11:58:13;;;;;;;1.61;1.30;;;;;;;20.83;41.92;101425.33;;;;-59
2021/04/12 12:01:13;;;;;;;2.28;1.19;;;;;;;20.81;41.90;101429.45;;;;-56
2021/04/12 12:04:13;;;;;;;1.97;1.20;;;;;;;20.80;41.88;101428.06;;;;-56
2021/04/12 12:07:13;;;;;;;1.61;1.19;;;;;;;20.81;41.81;101429.53;;;;-56
2021/04/12 12:10:13;;;;;;;1.68;1.20;;;;;;;20.79;41.78;101429.20;;;;-58
2021/04/12 12:13:13;;;;;;;1.20;1.09;;;;;;;20.79;41.76;101430.83;;;;-59
2021/04/12 12:16:13;;;;;;;1.20;1.10;;;;;;;20.79;41.77;101422.41;;;;-60
2021/04/12 12:19:13;;;;;;;1.69;1.10;;;;;;;20.78;41.71;101426.81;;;;-56
2021/04/12 12:22:13;;;;;;;2.75;1.36;;;;;;;20.79;41.71;101426.16;;;;-60
2021/04/12 12:25:13;;;;;;;1.20;1.10;;;;;;;20.77;41.76;101425.83;;;;-59
2021/04/12 12:28:13;;;;;;;1.23;1.13;;;;;;;20.78;41.68;101427.45;;;;-59
2021/04/12 12:31:31;;;;;;;1.21;1.11;;;;;;;20.78;41.72;101430.55;;;;-56
2021/04/12 12:34:13;;;;;;;1.64;1.13;;;;;;;20.77;41.68;101431.28;;;;-56
2021/04/12 12:37:13;;;;;;;1.27;1.14;;;;;;;20.79;41.64;101428.52;;;;-55
2021/04/12 12:40:13;;;;;;;1.32;1.10;;;;;;;20.81;41.86;101429.20;;;;-54
2021/04/12 12:43:13;;;;;;;1.04;0.98;;;;;;;20.81;42.08;101423.66;;;;-50
2021/04/12 12:46:13;;;;;;;3.70;1.22;;;;;;;20.84;42.21;101426.09;;;;-58
2021/04/12 12:49:13;;;;;;;1.40;1.29;;;;;;;20.85;42.30;101434.41;;;;-58
2021/04/12 12:52:13;;;;;;;1.69;1.10;;;;;;;20.85;41.83;101436.20;;;;-53
2021/04/12 12:55:13;;;;;;;1.59;1.10;;;;;;;20.84;41.88;101435.38;;;;-56
2021/04/12 12:58:13;;;;;;;1.23;1.10;;;;;;;20.86;42.24;101428.41;;;;-50
2021/04/12 13:01:13;;;;;;;2.66;1.23;;;;;;;20.88;42.58;101428.11;;;;-51
2021/04/12 13:04:13;;;;;;;0.89;0.89;;;;;;;20.90;42.44;101427.25;;;;-52
2021/04/12 13:07:13;;;;;;;1.23;0.91;;;;;;;20.93;42.57;101417.75;;;;-52
2021/04/12 13:10:13;;;;;;;1.00;0.91;;;;;;;20.94;42.71;101421.28;;;;-51
2021/04/12 13:13:13;;;;;;;1.04;0.95;;;;;;;20.97;42.62;101419.52;;;;-55
2021/04/12 13:16:13;;;;;;;1.20;1.07;;;;;;;20.99;42.64;101424.77;;;;-58
2021/04/12 13:19:13;;;;;;;1.12;1.06;;;;;;;20.98;42.53;101418.66;;;;-54
2021/04/12 13:22:13;;;;;;;1.60;1.10;;;;;;;20.99;42.59;101417.52;;;;-60
2021/04/12 13:25:13;;;;;;;1.25;0.97;;;;;;;21.01;42.70;101415.92;;;;-59
2021/04/12 13:28:13;;;;;;;1.24;1.00;;;;;;;21.01;42.63;101413.15;;;;-52
2021/04/12 13:31:13;;;;;;;1.13;1.03;;;;;;;21.02;42.63;101410.78;;;;-53
2021/04/12 13:34:13;;;;;;;1.35;1.09;;;;;;;21.01;42.46;101411.60;;;;-58
2021/04/12 13:37:13;;;;;;;2.27;1.05;;;;;;;21.03;42.71;101415.38;;;;-54
2021/04/12 13:40:13;;;;;;;1.49;0.95;;;;;;;21.04;42.72;101412.94;;;;-55
2021/04/12 13:43:13;;;;;;;1.73;0.95;;;;;;;21.02;42.64;101420.68;;;;-57
2021/04/12 13:46:13;;;;;;;1.31;1.01;;;;;;;21.04;42.77;101421.17;;;;-52
2021/04/12 13:49:13;;;;;;;1.81;1.10;;;;;;;21.02;42.20;101421.70;;;;-52
2021/04/12 13:52:13;;;;;;;1.39;0.99;;;;;;;21.01;42.29;101422.36;;;;-63
2021/04/12 13:55:13;;;;;;;2.66;1.00;;;;;;;20.99;42.36;101427.95;;;;-52
2021/04/12 13:58:14;;;;;;;0.91;0.91;;;;;;;20.98;41.97;101425.99;;;;-62
2021/04/12 14:01:13;;;;;;;1.12;1.02;;;;;;;20.96;41.96;101428.16;;;;-58
2021/04/12 14:04:13;;;;;;;1.76;1.00;;;;;;;20.98;41.84;101423.36;;;;-54
2021/04/12 14:07:13;;;;;;;1.09;0.99;;;;;;;20.97;41.84;101427.27;;;;-54
2021/04/12 14:10:13;;;;;;;3.06;1.10;;;;;;;20.97;41.52;101433.87;;;;-52
2021/04/12 14:13:15;;;;;;;2.26;1.09;;;;;;;20.97;41.61;101431.59;;;;-51
2021/04/12 14:16:13;;;;;;;1.02;0.99;;;;;;;21.00;41.89;101430.84;;;;-50
2021/04/12 14:19:13;;;;;;;3.42;1.19;;;;;;;21.01;41.88;101424.31;;;;-51
2021/04/12 14:22:13;;;;;;;3.49;0.99;;;;;;;21.03;41.91;101424.43;;;;-48
2021/04/12 14:25:13;;;;;;;1.17;1.10;;;;;;;21.05;41.82;101428.53;;;;-50
2021/04/12 14:28:13;;;;;;;0.90;0.90;;;;;;;21.06;41.82;101429.59;;;;-46
2021/04/12 14:31:13;;;;;;;1.20;1.03;;;;;;;21.09;41.70;101435.44;;;;-48
2021/04/12 14:34:13;;;;;;;3.27;1.05;;;;;;;21.10;41.80;101434.47;;;;-53
2021/04/12 14:37:16;;;;;;;1.13;1.05;;;;;;;21.13;41.87;101434.20;;;;-52
2021/04/12 14:40:13;;;;;;;1.52;1.07;;;;;;;21.16;41.76;101436.52;;;;-58
2021/04/12 14:43:13;;;;;;;1.71;0.90;;;;;;;21.19;41.84;101433.80;;;;-49
2021/04/12 14:46:13;;;;;;;1.87;1.00;;;;;;;21.20;41.95;101431.61;;;;-52
2021/04/12 14:49:13;;;;;;;1.03;1.02;;;;;;;21.22;41.83;101432.05;;;;-53
2021/04/12 14:52:13;;;;;;;2.15;0.95;;;;;;;21.27;41.96;101438.22;;;;-57
2021/04/12 14:55:13;;;;;;;1.13;0.90;;;;;;;21.26;41.93;101436.42;;;;-58
2021/04/12 14:58:13;;;;;;;1.05;0.91;;;;;;;21.26;42.06;101443.19;;;;-50
2021/04/12 15:01:13;;;;;;;1.51;1.04;;;;;;;21.27;42.08;101437.89;;;;-53
2021/04/12 15:04:13;;;;;;;0.83;0.83;;;;;;;21.28;41.98;101440.78;;;;-55
2021/04/12 15:07:13;;;;;;;1.62;1.00;;;;;;;21.28;41.91;101443.55;;;;-59
2021/04/12 15:10:13;;;;;;;2.07;1.11;;;;;;;21.26;41.66;101441.64;;;;-53
2021/04/12 15:13:13;;;;;;;1.75;1.04;;;;;;;21.22;41.65;101444.92;;;;-53
2021/04/12 15:16:13;;;;;;;2.48;1.00;;;;;;;21.20;41.58;101447.42;;;;-54
2021/04/12 15:19:13;;;;;;;1.27;0.85;;;;;;;21.19;41.56;101454.59;;;;-53
2021/04/12 15:22:14;;;;;;;1.15;0.91;;;;;;;21.16;41.51;101456.81;;;;-52
2021/04/12 15:25:13;;;;;;;2.01;1.07;;;;;;;21.11;41.54;101464.49;;;;-61
2021/04/12 15:28:14;;;;;;;2.27;0.95;;;;;;;21.12;41.26;101466.28;;;;-60
2021/04/12 15:31:25;;;;;;;1.20;1.05;;;;;;;21.12;41.29;101467.19;;;;-49
2021/04/12 15:34:13;;;;;;;1.19;1.02;;;;;;;21.13;41.31;101473.16;;;;-51
2021/04/12 15:37:13;;;;;;;1.03;1.01;;;;;;;21.13;41.26;101474.95;;;;-50
2021/04/12 15:40:13;;;;;;;1.03;0.91;;;;;;;21.13;41.09;101476.09;;;;-52
2021/04/12 15:43:13;;;;;;;1.31;1.01;;;;;;;21.11;41.14;101482.84;;;;-56
2021/04/12 15:46:13;;;;;;;1.03;1.00;;;;;;;21.13;41.15;101493.05;;;;-58
2021/04/12 15:49:13;;;;;;;3.01;0.89;;;;;;;21.14;41.23;101512.45;;;;-61
2021/04/12 15:52:13;;;;;;;1.21;0.99;;;;;;;21.14;41.12;101514.58;;;;-51
2021/04/12 15:55:13;;;;;;;1.10;1.00;;;;;;;21.14;41.12;101513.68;;;;-50
2021/04/12 15:58:13;;;;;;;1.11;1.00;;;;;;;21.13;41.08;101513.52;;;;-55
2021/04/12 16:01:13;;;;;;;0.88;0.88;;;;;;;21.13;40.99;101511.64;;;;-60
2021/04/12 16:04:13;;;;;;;1.78;0.99;;;;;;;21.13;41.05;101508.63;;;;-61
2021/04/12 16:07:13;;;;;;;2.23;1.00;;;;;;;21.13;41.16;101512.63;;;;-54
2021/04/12 16:10:13;;;;;;;1.01;0.99;;;;;;;21.13;40.95;101509.03;;;;-54
2021/04/12 16:13:13;;;;;;;1.10;1.00;;;;;;;21.12;41.00;101510.30;;;;-51
2021/04/12 16:16:13;;;;;;;1.55;1.11;;;;;;;21.14;40.93;101511.31;;;;-54
2021/04/12 16:19:13;;;;;;;0.92;0.91;;;;;;;21.13;41.00;101507.48;;;;-50
2021/04/12 16:22:13;;;;;;;0.91;0.91;;;;;;;21.12;40.98;101507.38;;;;-51
2021/04/12 16:25:13;;;;;;;1.63;1.05;;;;;;;21.11;40.90;101506.14;;;;-50
2021/04/12 16:28:13;;;;;;;1.00;1.00;;;;;;;21.12;40.95;101507.05;;;;-56
2021/04/12 16:31:13;;;;;;;0.96;0.96;;;;;;;21.13;40.99;101511.23;;;;-56
2021/04/12 16:34:13;;;;;;;0.95;0.95;;;;;;;21.12;40.87;101509.66;;;;-60
2021/04/12 16:37:13;;;;;;;0.99;0.92;;;;;;;21.14;40.95;101510.26;;;;-51
2021/04/12 16:40:13;;;;;;;1.51;0.95;;;;;;;21.15;40.90;101508.58;;;;-62
2021/04/12 16:43:13;;;;;;;1.05;0.93;;;;;;;21.15;40.92;101510.62;;;;-54
2021/04/12 16:46:13;;;;;;;1.05;0.95;;;;;;;21.16;40.90;101508.25;;;;-55
2021/04/12 16:49:17;;;;;;;1.13;1.00;;;;;;;21.18;40.91;101509.34;;;;-53
2021/04/12 16:52:13;;;;;;;0.91;0.91;;;;;;;21.19;40.95;101511.01;;;;-53
2021/04/12 16:55:13;;;;;;;1.71;0.90;;;;;;;21.19;40.94;101508.40;;;;-54
2021/04/12 16:58:13;;;;;;;2.18;1.00;;;;;;;21.20;40.91;101508.89;;;;-53
2021/04/12 17:01:14;;;;;;;1.10;1.04;;;;;;;21.18;40.54;101511.70;;;;-51
2021/04/12 17:04:13;;;;;;;1.01;1.00;;;;;;;21.16;40.61;101510.62;;;;-51
2021/04/12 17:07:14;;;;;;;2.00;1.00;;;;;;;21.15;40.61;101519.66;;;;-50
2021/04/12 17:10:16;;;;;;;1.11;1.01;;;;;;;21.14;40.63;101522.73;;;;-51
2021/04/12 17:13:13;;;;;;;0.89;0.89;;;;;;;21.13;40.68;101521.91;;;;-47
2021/04/12 17:16:13;;;;;;;1.13;0.97;;;;;;;21.12;40.72;101525.06;;;;-52
2021/04/12 17:19:13;;;;;;;1.12;1.02;;;;;;;21.11;40.73;101519.19;;;;-52
2021/04/12 17:22:13;;;;;;;1.24;1.10;;;;;;;21.11;40.73;101521.06;;;;-52
2021/04/12 17:25:13;;;;;;;0.95;0.95;;;;;;;21.10;40.79;101516.71;;;;-51
2021/04/12 17:28:13;;;;;;;1.02;0.93;;;;;;;21.10;40.79;101518.99;;;;-47
2021/04/12 17:31:18;;;;;;;1.01;1.00;;;;;;;21.08;40.81;101513.37;;;;-48
2021/04/12 17:34:13;;;;;;;1.81;1.07;;;;;;;21.08;40.84;101516.62;;;;-48
2021/04/12 17:37:13;;;;;;;0.98;0.98;;;;;;;21.08;40.84;101515.13;;;;-48
2021/04/12 17:40:13;;;;;;;1.03;0.97;;;;;;;21.08;40.88;101516.84;;;;-48
2021/04/12 17:43:13;;;;;;;1.11;0.98;;;;;;;21.07;40.90;101517.16;;;;-51
2021/04/12 17:46:13;;;;;;;1.51;1.00;;;;;;;21.07;40.91;101520.91;;;;-52
2021/04/12 17:49:13;;;;;;;0.81;0.81;;;;;;;21.07;40.91;101527.77;;;;-52
2021/04/12 17:52:13;;;;;;;0.90;0.90;;;;;;;21.08;40.92;101529.72;;;;-52
2021/04/12 17:55:15;;;;;;;0.92;0.92;;;;;;;21.07;40.91;101533.80;;;;-52
2021/04/12 17:58:13;;;;;;;0.90;0.90;;;;;;;21.07;40.95;101540.07;;;;-51
2021/04/12 18:01:13;;;;;;;0.89;0.89;;;;;;;21.05;40.97;101538.89;;;;-51
2021/04/12 18:04:13;;;;;;;0.90;0.90;;;;;;;21.06;40.93;101545.45;;;;-50
2021/04/12 18:07:14;;;;;;;0.94;0.94;;;;;;;21.07;40.97;101546.18;;;;-50
2021/04/12 18:10:13;;;;;;;0.99;0.99;;;;;;;21.06;40.96;101546.15;;;;-50
2021/04/12 18:13:13;;;;;;;1.05;0.99;;;;;;;21.06;41.01;101543.13;;;;-50
2021/04/12 18:16:13;;;;;;;0.81;0.81;;;;;;;21.05;41.00;101544.44;;;;-51
2021/04/12 18:19:13;;;;;;;1.18;1.01;;;;;;;21.04;41.04;101544.27;;;;-47
2021/04/12 18:22:13;;;;;;;0.95;0.92;;;;;;;21.05;41.01;101545.91;;;;-51
2021/04/12 18:25:13;;;;;;;1.33;0.90;;;;;;;21.05;41.01;101548.67;;;;-47
2021/04/12 18:28:13;;;;;;;0.83;0.83;;;;;;;21.05;41.04;101557.39;;;;-47
2021/04/12 18:31:18;;;;;;;0.90;0.90;;;;;;;21.05;41.03;101561.80;;;;-47